Time;durP1;ratioP1;P1;durP2;ratioP2;P2;SDS_P1;SDS_P2;PMS_P1;PMS_P2;Temp;Humidity;BMP_temperature;BMP_pressure;BME280_temperature;BME280_humidity;BME280_pressure;Samples;Min_cycle;Max_cycle;Signal;HPM_P1;HPM_P2
2021/01/30 00:06:10;;;;;;;1999.90;999.90;;;;;;;0.29;80.08;99161.13;15683553;28;20059;-49
2021/01/30 00:13:41;;;;;;;1999.90;999.90;;;;;;;0.25;79.31;99154.63;15682106;28;20075;-54
2021/01/30 00:21:14;;;;;;;1999.90;999.90;;;;;;;0.22;79.71;99146.22;15677458;28;20390;-49
2021/01/30 00:28:45;;;;;;;1999.90;999.90;;;;;;;0.13;79.61;99159.00;15664633;28;20045;-52
2021/01/30 00:36:17;;;;;;;1999.90;999.90;;;;;;;0.37;79.16;99175.28;15667401;28;20530;-57
2021/01/30 00:43:49;;;;;;;1999.90;999.90;;;;;;;0.32;79.05;99173.47;15657877;28;20470;-58
2021/01/30 00:51:22;;;;;;;1999.90;999.90;;;;;;;0.46;79.50;99177.03;15665365;28;20056;-55
2021/01/30 00:58:58;;;;;;;1999.90;999.90;;;;;;;0.19;79.86;99186.00;15682842;28;20108;-54
2021/01/30 01:06:31;;;;;;;1999.90;999.90;;;;;;;0.24;80.21;99180.44;15661913;28;20045;-52
2021/01/30 01:14:02;;;;;;;1999.90;999.90;;;;;;;0.52;79.17;99195.03;15736811;28;20048;-54
2021/01/30 01:21:35;;;;;;;1999.90;999.90;;;;;;;0.31;79.20;99188.25;15692031;28;20032;-51
2021/01/30 01:29:06;;;;;;;1999.90;999.90;;;;;;;0.18;79.85;99192.63;15676264;28;20520;-52
2021/01/30 01:36:38;;;;;;;1999.90;999.90;;;;;;;0.27;79.14;99195.47;15693767;28;20095;-52
2021/01/30 01:44:10;;;;;;;1999.90;999.90;;;;;;;0.30;78.61;99194.88;15685545;28;20041;-56
2021/01/30 01:51:46;;;;;;;1999.90;999.90;;;;;;;0.23;79.04;99203.50;15678352;28;20122;-54
2021/01/30 01:59:19;;;;;;;1999.90;999.90;;;;;;;0.31;79.14;99223.13;15669521;28;20317;-52
2021/01/30 02:06:53;;;;;;;1999.90;999.90;;;;;;;0.37;78.80;99197.22;15677654;28;20532;-55
2021/01/30 02:14:25;;;;;;;1999.90;999.90;;;;;;;0.57;78.56;99224.31;15684687;28;20131;-55
2021/01/30 02:22:29;;;;;;;1999.90;999.90;;;;;;;0.63;77.82;99225.03;15683811;28;20543;-51
2021/01/30 02:30:27;;;;;;;1999.90;999.90;;;;;;;0.39;78.26;99220.50;15701594;28;20049;-56
2021/01/30 02:38:06;;;;;;;1999.90;999.90;;;;;;;0.34;77.29;99223.34;15707002;28;20045;-56
2021/01/30 02:45:44;;;;;;;1999.90;999.90;;;;;;;0.39;77.46;99242.44;15736141;28;20052;-57
2021/01/30 02:53:20;;;;;;;1999.90;999.90;;;;;;;0.24;77.82;99259.19;15695023;28;20053;-54
2021/01/30 03:00:56;;;;;;;1999.90;999.90;;;;;;;0.35;76.39;99270.81;15713232;28;20052;-53
2021/01/30 03:08:34;;;;;;;1999.90;999.90;;;;;;;0.28;76.92;99285.72;15694186;28;20048;-54
2021/01/30 03:16:11;;;;;;;1999.90;999.90;;;;;;;0.35;76.16;99298.25;15702901;28;20033;-51
2021/01/30 03:23:43;;;;;;;1999.90;999.90;;;;;;;0.49;75.76;99318.31;15709562;28;20470;-53
2021/01/30 03:31:15;;;;;;;1999.90;999.90;;;;;;;0.52;76.06;99326.78;15722194;28;20059;-51
2021/01/30 03:38:47;;;;;;;1999.90;999.90;;;;;;;0.70;74.92;99343.47;15656164;28;20175;-52
2021/01/30 03:46:19;;;;;;;1999.90;999.90;;;;;;;0.73;75.32;99367.56;15699065;28;20545;-54
2021/01/30 03:53:51;;;;;;;1999.90;999.90;;;;;;;1.02;74.29;99401.13;15655158;28;20040;-52
2021/01/30 04:01:31;;;;;;;1999.90;999.90;;;;;;;0.99;74.58;99389.94;15694108;28;20047;-56
2021/01/30 04:09:05;;;;;;;1999.90;999.90;;;;;;;0.66;75.95;99405.59;15714455;28;20514;-53
2021/01/30 04:16:37;;;;;;;1999.90;999.90;;;;;;;0.99;74.69;99417.41;15737183;28;20060;-51
2021/01/30 04:24:10;;;;;;;1999.90;999.90;;;;;;;0.83;75.71;99420.41;15696160;28;20044;-54
2021/01/30 04:31:41;;;;;;;1999.90;999.90;;;;;;;0.95;75.55;99417.19;15685904;28;20473;-52
2021/01/30 04:39:14;;;;;;;1999.90;999.90;;;;;;;1.12;75.07;99414.69;15698030;28;20527;-50
2021/01/30 04:47:00;;;;;;;1999.90;999.90;;;;;;;1.07;75.01;99435.94;15700181;28;20047;-52
2021/01/30 04:54:45;;;;;;;1999.90;999.90;;;;;;;1.14;74.76;99445.41;15723201;28;20083;-50
2021/01/30 05:02:29;;;;;;;1999.90;999.90;;;;;;;1.10;74.84;99449.06;15681559;28;20072;-51
2021/01/30 05:10:05;;;;;;;1999.90;999.90;;;;;;;1.22;74.54;99467.81;15647334;28;20053;-51
2021/01/30 05:17:43;;;;;;;1999.90;999.90;;;;;;;1.02;74.86;99474.47;15695386;28;20045;-54
2021/01/30 05:25:19;;;;;;;1999.90;999.90;;;;;;;1.01;75.29;99483.84;15713979;28;20054;-53
2021/01/30 05:33:19;;;;;;;1999.90;999.90;;;;;;;1.06;75.25;99494.75;15742277;28;20055;-54
2021/01/30 05:41:02;;;;;;;1999.90;999.90;;;;;;;1.33;74.83;99518.75;15650602;28;20127;-52
2021/01/30 05:48:36;;;;;;;1999.90;999.90;;;;;;;1.36;74.17;99529.97;15735083;28;20402;-52
2021/01/30 05:56:08;;;;;;;1999.90;999.90;;;;;;;1.15;75.04;99528.69;15712543;28;20091;-55
2021/01/30 06:03:54;;;;;;;1999.90;999.90;;;;;;;1.22;74.81;99556.56;15698272;28;20120;-52
2021/01/30 06:11:27;;;;;;;1999.90;999.90;;;;;;;1.31;74.73;99574.00;15661603;28;20302;-55
2021/01/30 06:19:10;;;;;;;1999.90;999.90;;;;;;;1.37;74.02;99597.56;15698530;28;20037;-57
2021/01/30 06:26:45;;;;;;;1999.90;999.90;;;;;;;1.26;74.19;99617.25;15696113;28;20408;-50
2021/01/30 06:34:25;;;;;;;1999.90;999.90;;;;;;;1.25;74.06;99634.84;15714013;28;20124;-51
2021/01/30 06:42:07;;;;;;;1999.90;999.90;;;;;;;1.43;73.46;99645.84;15687057;28;20147;-51
2021/01/30 06:49:42;;;;;;;1999.90;999.90;;;;;;;1.34;73.87;99671.53;15717474;22;20077;-60
2021/01/30 06:57:23;;;;;;;1999.90;999.90;;;;;;;1.20;74.15;99689.91;15695997;28;20048;-63
2021/01/30 07:05:11;;;;;;;1999.90;999.90;;;;;;;1.21;74.93;99702.50;15692764;28;20082;-62
2021/01/30 07:12:55;;;;;;;1999.90;999.90;;;;;;;1.38;74.83;99724.81;15706946;28;20103;-64
2021/01/30 07:20:34;;;;;;;1999.90;999.90;;;;;;;1.32;75.30;99745.22;15715742;28;20089;-63
2021/01/30 07:28:16;;;;;;;1999.90;999.90;;;;;;;1.58;75.07;99743.78;15707588;28;20056;-62
2021/01/30 07:35:57;;;;;;;1999.90;999.90;;;;;;;1.77;74.63;99759.44;15711779;28;20146;-63
2021/01/30 07:43:35;;;;;;;1999.90;999.90;;;;;;;2.02;74.18;99756.31;15721855;28;20055;-63
2021/01/30 07:51:10;;;;;;;1999.90;999.90;;;;;;;1.75;73.50;99762.50;15692602;28;20521;-62
2021/01/30 07:58:55;;;;;;;1999.90;999.90;;;;;;;1.86;73.05;99774.97;15711998;28;20060;-63
2021/01/30 08:06:39;;;;;;;1999.90;999.90;;;;;;;2.13;72.74;99768.78;15696238;28;20056;-63
2021/01/30 08:14:27;;;;;;;1999.90;999.90;;;;;;;2.31;71.91;99772.63;15665314;28;20032;-62
2021/01/30 08:22:04;;;;;;;1999.90;999.90;;;;;;;2.70;70.61;99783.22;15730481;28;20045;-61
2021/01/30 08:29:39;;;;;;;1999.90;999.90;;;;;;;2.93;69.72;99797.16;15700508;28;20053;-63
2021/01/30 08:37:36;;;;;;;1999.90;999.90;;;;;;;3.02;68.59;99798.91;15678110;28;20459;-61
2021/01/30 08:45:11;;;;;;;1999.90;999.90;;;;;;;3.27;68.64;99805.84;15685338;28;20139;-62
2021/01/30 08:53:10;;;;;;;1999.90;999.90;;;;;;;3.50;67.91;99815.00;15735689;28;20070;-63
2021/01/30 09:00:58;;;;;;;1999.90;999.90;;;;;;;3.62;67.53;99822.75;15653378;28;20045;-61
2021/01/30 09:08:44;;;;;;;1999.90;999.90;;;;;;;3.63;67.76;99839.00;15667578;28;20107;-62
2021/01/30 09:16:16;;;;;;;1999.90;999.90;;;;;;;3.60;67.54;99844.31;15686034;28;20095;-64
2021/01/30 09:23:58;;;;;;;1999.90;999.90;;;;;;;3.85;67.25;99851.22;15684967;28;20041;-62
2021/01/30 09:31:31;;;;;;;1999.90;999.90;;;;;;;4.26;66.34;99853.91;15685600;28;20056;-63
2021/01/30 09:39:20;;;;;;;1999.90;999.90;;;;;;;3.42;68.80;99865.38;15684202;28;20041;-63
2021/01/30 09:46:58;;;;;;;1999.90;999.90;;;;;;;3.73;68.81;99876.59;15666632;28;20127;-61
2021/01/30 09:54:29;;;;;;;1999.90;999.90;;;;;;;3.48;68.63;99878.75;15710794;28;20055;-62
2021/01/30 10:02:16;;;;;;;1999.90;999.90;;;;;;;3.44;70.02;99877.75;15694329;28;20501;-62
2021/01/30 10:09:49;;;;;;;1999.90;999.90;;;;;;;3.15;70.14;99877.22;15641458;28;20048;-60
2021/01/30 10:17:30;;;;;;;1999.90;999.90;;;;;;;3.73;69.24;99877.41;15673089;28;20053;-62
2021/01/30 10:25:07;;;;;;;1999.90;999.90;;;;;;;3.98;69.04;99876.06;15670044;28;20086;-64
2021/01/30 10:32:44;;;;;;;1999.90;999.90;;;;;;;4.50;67.49;99884.81;15696730;28;20047;-62
2021/01/30 10:40:31;;;;;;;1999.90;999.90;;;;;;;4.93;66.16;99898.16;15706677;28;20105;-63
2021/01/30 10:48:07;;;;;;;1999.90;999.90;;;;;;;4.61;66.78;99886.22;15708660;28;20163;-63
2021/01/30 10:55:39;;;;;;;1999.90;999.90;;;;;;;4.69;63.86;99892.94;15726213;28;20066;-63
2021/01/30 11:03:23;;;;;;;1999.90;999.90;;;;;;;4.54;65.90;99890.53;15648568;28;20497;-63
2021/01/30 11:11:04;;;;;;;1999.90;999.90;;;;;;;5.35;63.61;99891.22;15688062;28;20048;-63
2021/01/30 11:18:39;;;;;;;1999.90;999.90;;;;;;;6.82;59.06;99899.03;15677194;28;20095;-63
2021/01/30 11:26:24;;;;;;;1999.90;999.90;;;;;;;7.05;58.81;99896.88;15650047;28;20052;-63
2021/01/30 11:33:58;;;;;;;1999.90;999.90;;;;;;;6.40;59.56;99895.94;15654228;28;20053;-61
2021/01/30 11:41:29;;;;;;;1999.90;999.90;;;;;;;6.07;61.92;99895.56;15676410;28;20045;-62
2021/01/30 11:49:02;;;;;;;1999.90;999.90;;;;;;;5.76;61.17;99892.84;15677097;28;20320;-64
2021/01/30 11:56:36;;;;;;;1999.90;999.90;;;;;;;5.70;61.75;99888.59;15677019;28;20039;-63
2021/01/30 12:04:11;;;;;;;1999.90;999.90;;;;;;;5.41;63.84;99889.94;15657562;28;20041;-61
2021/01/30 12:11:42;;;;;;;1999.90;999.90;;;;;;;5.18;64.68;99893.88;15698443;28;20106;-64
2021/01/30 12:19:15;;;;;;;1999.90;999.90;;;;;;;5.57;62.37;99898.66;15693141;28;20053;-65
2021/01/30 12:26:46;;;;;;;1999.90;999.90;;;;;;;5.83;61.83;99887.66;15685816;28;20098;-62
2021/01/30 12:34:20;;;;;;;1999.90;999.90;;;;;;;7.80;55.42;99893.34;15669397;28;20099;-63
2021/01/30 12:41:51;;;;;;;;;;;;;;;6.59;58.20;99906.72;15682860;28;20072;-63
2021/01/30 12:49:24;;;;;;;1999.90;999.90;;;;;;;7.07;58.16;99891.81;15702086;22;19920;-63
2021/01/30 12:56:55;;;;;;;1999.90;999.90;;;;;;;10.93;47.91;99897.91;15752240;28;20112;-62
2021/01/30 13:04:28;;;;;;;1999.90;999.90;;;;;;;9.17;49.72;99903.81;15670259;28;20110;-61
2021/01/30 13:11:59;;;;;;;1999.90;999.90;;;;;;;9.83;51.08;99903.66;15671159;28;20121;-62
2021/01/30 13:19:36;;;;;;;1999.90;999.90;;;;;;;10.54;46.52;99907.13;15688078;28;20076;-62
2021/01/30 13:27:07;;;;;;;1999.90;999.90;;;;;;;8.01;53.65;99900.91;15685472;28;20048;-61
2021/01/30 13:34:40;;;;;;;1999.90;999.90;;;;;;;6.82;55.78;99912.91;15660351;28;20041;-62
2021/01/30 13:42:11;;;;;;;1999.90;999.90;;;;;;;6.26;57.57;99909.94;15645691;28;20056;-62
2021/01/30 13:49:43;;;;;;;1999.90;999.90;;;;;;;5.63;59.45;99915.94;15680830;28;20544;-63
2021/01/30 13:57:15;;;;;;;1999.90;999.90;;;;;;;5.20;60.65;99911.78;15676271;28;20045;-62
2021/01/30 14:04:47;;;;;;;1999.90;999.90;;;;;;;4.60;63.31;99903.09;15666356;28;20041;-63
2021/01/30 14:12:19;;;;;;;1999.90;999.90;;;;;;;5.06;61.19;99910.25;15660160;28;20049;-62
2021/01/30 14:19:51;;;;;;;1999.90;999.90;;;;;;;5.01;62.01;99916.75;15685336;28;20079;-62
2021/01/30 14:27:23;;;;;;;1999.90;999.90;;;;;;;5.13;62.56;99913.41;15683576;28;20049;-62
2021/01/30 14:34:55;;;;;;;1999.90;999.90;;;;;;;5.29;60.87;99924.88;15664606;28;20064;-63
2021/01/30 14:42:27;;;;;;;1999.90;999.90;;;;;;;5.15;60.53;99913.88;15666621;28;20053;-62
2021/01/30 14:50:00;;;;;;;1999.90;999.90;;;;;;;5.07;59.95;99920.19;15654275;28;20037;-64
2021/01/30 14:57:32;;;;;;;1999.90;999.90;;;;;;;5.13;61.17;99918.94;15672127;28;20131;-62
2021/01/30 15:05:07;;;;;;;1999.90;999.90;;;;;;;5.07;62.62;99925.72;15647612;28;20407;-64
2021/01/30 15:12:39;;;;;;;1999.90;999.90;;;;;;;4.91;63.49;99937.16;15635725;28;20136;-61
2021/01/30 15:20:13;;;;;;;1999.90;999.90;;;;;;;4.70;63.76;99943.50;15700270;28;20111;-64
2021/01/30 15:27:44;;;;;;;;;;;;;;;4.59;63.75;99954.78;15666097;28;20143;-61
2021/01/30 15:35:17;;;;;;;1999.90;999.90;;;;;;;4.38;65.40;99950.88;15620877;28;19925;-62
2021/01/30 15:42:49;;;;;;;1999.90;999.90;;;;;;;4.27;65.74;99953.03;15659084;28;20053;-60
2021/01/30 15:50:21;;;;;;;1999.90;999.90;;;;;;;4.24;64.77;99958.34;15636252;28;20037;-63
2021/01/30 15:57:53;;;;;;;1999.90;999.90;;;;;;;4.21;65.94;99975.53;15657308;28;20041;-62
2021/01/30 16:05:25;;;;;;;1999.90;999.90;;;;;;;4.00;65.41;99984.22;15673134;28;20136;-64
2021/01/30 16:12:57;;;;;;;1999.90;999.90;;;;;;;3.88;65.81;99978.41;15670490;28;20048;-61
2021/01/30 16:20:29;;;;;;;1999.90;999.90;;;;;;;3.59;67.53;99981.44;15671613;28;20198;-60
2021/01/30 16:28:01;;;;;;;1999.90;999.90;;;;;;;3.34;68.18;99992.94;15629152;28;20037;-63
2021/01/30 16:35:33;;;;;;;1999.90;999.90;;;;;;;3.14;69.18;99999.63;15664201;28;20420;-63
2021/01/30 16:43:06;;;;;;;1999.90;999.90;;;;;;;3.40;68.17;100011.03;15654776;28;20045;-63
2021/01/30 16:50:38;;;;;;;1999.90;999.90;;;;;;;3.22;68.76;100009.13;15684543;28;20082;-59
2021/01/30 16:58:11;;;;;;;1999.90;999.90;;;;;;;2.99;68.62;100021.91;15676937;28;20382;-63
2021/01/30 17:05:46;;;;;;;1999.90;999.90;;;;;;;2.69;70.09;100025.94;15687987;28;20049;-62
2021/01/30 17:13:18;;;;;;;1999.90;999.90;;;;;;;2.54;70.74;100035.25;15687755;28;20049;-65
2021/01/30 17:20:50;;;;;;;1999.90;999.90;;;;;;;2.93;70.09;100039.66;15669865;28;20055;-63
2021/01/30 17:28:22;;;;;;;1999.90;999.90;;;;;;;3.08;69.69;100044.94;15674262;28;20045;-64
2021/01/30 17:35:55;;;;;;;1999.90;999.90;;;;;;;3.00;69.66;100046.41;15687277;28;20493;-63
2021/01/30 17:43:26;;;;;;;1999.90;999.90;;;;;;;3.02;69.68;100043.34;15676397;28;20092;-62
2021/01/30 17:50:59;;;;;;;1999.90;999.90;;;;;;;3.04;69.74;100052.97;15649851;28;20049;-65
2021/01/30 17:58:30;;;;;;;1999.90;999.90;;;;;;;2.89;69.74;100045.75;15640778;28;20041;-60
2021/01/30 18:06:03;;;;;;;1999.90;999.90;;;;;;;3.06;69.45;100049.91;15680208;28;20041;-64
2021/01/30 18:13:34;;;;;;;1999.90;999.90;;;;;;;3.01;70.06;100059.06;15646785;28;20133;-63
2021/01/30 18:21:07;;;;;;;1999.90;999.90;;;;;;;2.95;70.55;100056.72;15624439;28;20036;-65
2021/01/30 18:28:38;;;;;;;1999.90;999.90;;;;;;;3.06;70.37;100049.91;15637365;28;20054;-61
2021/01/30 18:36:10;;;;;;;1999.90;999.90;;;;;;;3.22;68.60;100054.06;15645025;28;20418;-64
2021/01/30 18:43:42;;;;;;;1999.90;999.90;;;;;;;3.22;68.46;100053.25;15636283;28;20056;-62
2021/01/30 18:51:15;;;;;;;1999.90;999.90;;;;;;;2.95;69.56;100051.19;15634900;28;20502;-62
2021/01/30 18:58:46;;;;;;;1999.90;999.90;;;;;;;2.86;69.65;100042.78;15672796;28;20526;-62
2021/01/30 19:06:19;;;;;;;1999.90;999.90;;;;;;;2.87;68.40;100052.69;15632868;28;20579;-64
2021/01/30 19:13:51;;;;;;;1999.90;999.90;;;;;;;2.83;69.34;100066.25;15648763;28;20070;-64
2021/01/30 19:21:24;;;;;;;1999.90;999.90;;;;;;;2.87;69.16;100077.47;15637457;28;20132;-62
2021/01/30 19:28:56;;;;;;;1999.90;999.90;;;;;;;2.73;69.85;100084.84;15670697;28;20057;-62
2021/01/30 19:36:28;;;;;;;1999.90;999.90;;;;;;;2.83;69.91;100079.19;15646984;28;20120;-60
2021/01/30 19:44:00;;;;;;;1999.90;999.90;;;;;;;2.70;70.33;100090.94;15671192;28;20049;-63
2021/01/30 19:51:32;;;;;;;1999.90;999.90;;;;;;;2.70;69.52;100091.75;15651236;28;20091;-63
2021/01/30 19:59:04;;;;;;;1999.90;999.90;;;;;;;2.49;70.24;100085.69;15650766;28;20049;-62
2021/01/30 20:06:36;;;;;;;1999.90;999.90;;;;;;;2.39;70.26;100098.75;15668138;28;20053;-61
2021/01/30 20:14:07;;;;;;;1999.90;999.90;;;;;;;2.12;69.87;100093.84;15630943;28;20053;-64
2021/01/30 20:21:40;;;;;;;1999.90;999.90;;;;;;;1.90;70.06;100099.88;15661131;28;20049;-64
2021/01/30 20:29:11;;;;;;;1999.90;999.90;;;;;;;1.64;71.12;100100.09;15660557;28;20050;-61
2021/01/30 20:36:44;;;;;;;1999.90;999.90;;;;;;;1.53;70.57;100104.03;15724411;22;20056;-56
2021/01/30 20:44:16;;;;;;;1999.90;999.90;;;;;;;1.44;70.47;100097.50;15701656;28;20098;-57
2021/01/30 20:51:49;;;;;;;1999.90;999.90;;;;;;;1.14;69.84;100101.31;15672892;28;20483;-57
2021/01/30 20:59:20;;;;;;;1999.90;999.90;;;;;;;1.15;70.38;100105.72;15649412;28;20082;-55
2021/01/30 21:06:53;;;;;;;1999.90;999.90;;;;;;;0.99;71.06;100098.69;15663575;28;20556;-57
2021/01/30 21:14:24;;;;;;;1999.90;999.90;;;;;;;0.85;70.84;100106.72;15615033;28;20129;-57
2021/01/30 21:21:59;;;;;;;1999.90;999.90;;;;;;;0.57;70.67;100111.00;15676162;28;20134;-57
2021/01/30 21:29:30;;;;;;;1999.90;999.90;;;;;;;0.44;70.53;100109.66;15622733;28;20064;-57
2021/01/30 21:37:03;;;;;;;1999.90;999.90;;;;;;;0.36;69.58;100113.00;15654050;28;20045;-60
2021/01/30 21:44:35;;;;;;;1999.90;999.90;;;;;;;0.24;69.02;100117.97;15669627;28;20508;-56
2021/01/30 21:52:07;;;;;;;1999.90;999.90;;;;;;;-0.13;68.25;100126.56;15665763;28;20049;-59
2021/01/30 21:59:39;;;;;;;1999.90;999.90;;;;;;;-0.31;67.91;100117.81;15656553;28;20041;-56
2021/01/30 22:07:11;;;;;;;1999.90;999.90;;;;;;;-0.43;69.40;100128.22;15632610;28;20044;-57
2021/01/30 22:14:45;;;;;;;1999.90;999.90;;;;;;;-0.59;67.58;100130.16;15650432;28;20052;-58
2021/01/30 22:22:17;;;;;;;1999.90;999.90;;;;;;;-1.60;70.50;100140.84;15632071;28;20116;-57
2021/01/30 22:29:49;;;;;;;1999.90;999.90;;;;;;;-1.78;73.69;100140.19;15623471;28;20141;-57
2021/01/30 22:37:21;;;;;;;1999.90;999.90;;;;;;;-1.37;72.27;100123.13;15688578;28;20045;-60
2021/01/30 22:44:53;;;;;;;1999.90;999.90;;;;;;;-1.25;71.81;100121.84;15724172;28;20045;-58
2021/01/30 22:52:25;;;;;;;1999.90;999.90;;;;;;;-1.30;69.97;100121.81;15720242;28;20044;-59
2021/01/30 22:59:57;;;;;;;1999.90;999.90;;;;;;;-1.27;69.86;100120.44;15660080;28;20064;-59
2021/01/30 23:07:29;;;;;;;1999.90;999.90;;;;;;;-1.42;69.54;100117.66;15721246;28;20085;-59
2021/01/30 23:15:00;;;;;;;1999.90;999.90;;;;;;;-1.52;69.61;100143.06;15669093;28;20375;-59
2021/01/30 23:22:33;;;;;;;1999.90;999.90;;;;;;;-1.56;69.15;100134.59;15666493;28;20094;-56
2021/01/30 23:30:06;;;;;;;1999.90;999.90;;;;;;;-1.67;69.43;100148.47;15706212;28;20074;-58
2021/01/30 23:37:42;;;;;;;1999.90;999.90;;;;;;;-1.57;68.68;100143.84;15686958;28;20037;-58
2021/01/30 23:45:15;;;;;;;1999.90;999.90;;;;;;;-1.82;64.63;100141.81;15690935;28;20454;-58
2021/01/30 23:52:48;;;;;;;1999.90;999.90;;;;;;;-2.82;64.63;100148.16;15714009;28;20056;-58
